Time;durP1;ratioP1;P1;durP2;ratioP2;P2;SDS_P1;SDS_P2;PMS_P1;PMS_P2;Temp;Humidity;BMP_temperature;BMP_pressure;BME280_temperature;BME280_humidity;BME280_pressure;Samples;Min_cycle;Max_cycle;Signal;HPM_P1;HPM_P2
2023/09/28 00:19:15;;;;;;;24.35;21.85;;;17.60;99.90;;;;;;4577060;19;20366;-72
2023/09/28 00:20:51;;;;;;;22.48;20.38;;;17.60;99.90;;;;;;4590740;19;20433;-72
2023/09/28 00:22:27;;;;;;;22.77;20.52;;;17.60;99.90;;;;;;4591460;19;20007;-72
2023/09/28 00:24:02;;;;;;;23.48;21.05;;;17.60;99.90;;;;;;4590242;19;20002;-72
2023/09/28 00:25:39;;;;;;;23.33;21.13;;;17.60;99.90;;;;;;4591303;19;20023;-72
2023/09/28 00:27:15;;;;;;;22.85;20.65;;;17.60;99.90;;;;;;4591797;19;20022;-72
2023/09/28 00:28:50;;;;;;;23.65;21.25;;;17.60;99.90;;;;;;4590852;19;20011;-72
2023/09/28 00:30:26;;;;;;;23.48;21.08;;;17.60;99.90;;;;;;4591564;19;20006;-72
2023/09/28 00:32:01;;;;;;;24.08;21.58;;;17.60;99.90;;;;;;4590151;19;20317;-72
2023/09/28 00:33:36;;;;;;;23.70;21.02;;;17.60;99.90;;;;;;4591074;19;20003;-72
2023/09/28 00:35:11;;;;;;;23.88;21.48;;;17.50;99.90;;;;;;4591525;19;20005;-72
2023/09/28 00:36:46;;;;;;;22.92;20.63;;;17.50;99.90;;;;;;4590011;19;20026;-72
2023/09/28 00:38:21;;;;;;;23.70;21.40;;;17.50;99.90;;;;;;4590754;19;19998;-72
2023/09/28 00:39:56;;;;;;;23.88;21.38;;;17.50;99.90;;;;;;4590181;19;20003;-72
2023/09/28 00:41:31;;;;;;;23.77;21.38;;;17.50;99.90;;;;;;4590964;19;20360;-72
2023/09/28 00:43:07;;;;;;;22.48;20.27;;;17.50;99.90;;;;;;4591253;19;20035;-72
2023/09/28 00:44:42;;;;;;;23.25;20.90;;;17.40;99.90;;;;;;4591604;19;20007;-72
2023/09/28 00:46:16;;;;;;;22.90;20.58;;;17.40;99.90;;;;;;4591155;19;20010;-72
2023/09/28 00:47:55;;;;;;;23.67;21.25;;;17.40;99.90;;;;;;4591218;19;20002;-71
2023/09/28 00:49:33;;;;;;;23.58;21.27;;;17.40;99.90;;;;;;4588511;19;20030;-72
2023/09/28 00:51:08;;;;;;;23.80;19.95;;;17.40;99.90;;;;;;4590853;19;20010;-72
2023/09/28 00:52:50;;;;;;;22.40;20.13;;;17.40;99.90;;;;;;4591125;19;20003;-72
2023/09/28 00:54:27;;;;;;;22.23;20.02;;;17.40;99.90;;;;;;4590122;19;20074;-72
2023/09/28 00:56:03;;;;;;;22.83;20.50;;;17.40;99.90;;;;;;4590721;19;19999;-72
2023/09/28 00:57:37;;;;;;;22.73;20.52;;;17.30;99.90;;;;;;4591291;19;20009;-72
2023/09/28 00:59:14;;;;;;;23.17;20.77;;;17.40;99.90;;;;;;4588578;19;20011;-72
2023/09/28 01:00:49;;;;;;;21.40;19.35;;;17.40;99.90;;;;;;4589643;19;19999;-72
2023/09/28 01:02:23;;;;;;;22.23;20.13;;;17.40;99.90;;;;;;4592651;19;20290;-72
2023/09/28 01:04:04;;;;;;;22.35;20.25;;;17.30;99.90;;;;;;4595577;19;20006;-72
2023/09/28 01:05:40;;;;;;;23.17;20.83;;;17.30;99.90;;;;;;4594385;19;20013;-72
2023/09/28 01:07:27;;;;;;;23.13;20.92;;;17.30;99.90;;;;;;4595040;19;20006;-72
2023/09/28 01:09:08;;;;;;;22.15;20.05;;;17.30;99.90;;;;;;4594343;19;20014;-72
2023/09/28 01:10:44;;;;;;;22.98;20.58;;;17.30;99.90;;;;;;4594354;19;20030;-72
2023/09/28 01:12:22;;;;;;;22.95;20.63;;;17.30;99.90;;;;;;4593995;19;20023;-72
2023/09/28 01:14:00;;;;;;;23.45;21.15;;;17.30;99.90;;;;;;4594189;19;20007;-72
2023/09/28 01:15:35;;;;;;;22.90;20.67;;;17.30;99.90;;;;;;4593916;19;20013;-72
2023/09/28 01:17:09;;;;;;;23.75;21.38;;;17.20;99.90;;;;;;4594844;19;20451;-72
2023/09/28 01:18:44;;;;;;;22.60;20.33;;;17.30;99.90;;;;;;4593030;19;20497;-71
2023/09/28 01:20:36;;;;;;;23.30;21.08;;;17.20;99.90;;;;;;4594294;19;20310;-72
2023/09/28 01:22:17;;;;;;;21.98;19.88;;;17.20;99.90;;;;;;4595118;19;20066;-72
2023/09/28 01:23:53;;;;;;;24.75;22.35;;;17.20;99.90;;;;;;4595112;19;20029;-72
2023/09/28 01:25:28;;;;;;;23.55;21.08;;;17.20;99.90;;;;;;4594993;19;20002;-72
2023/09/28 01:27:02;;;;;;;23.45;21.15;;;17.20;99.90;;;;;;4595001;19;20429;-72
2023/09/28 01:28:38;;;;;;;23.33;21.13;;;17.20;99.90;;;;;;4594395;19;20011;-72
2023/09/28 01:30:14;;;;;;;23.70;21.38;;;17.20;99.90;;;;;;4594925;19;19998;-72
2023/09/28 01:31:48;;;;;;;23.55;21.25;;;17.20;99.90;;;;;;4593451;19;20086;-72
2023/09/28 01:33:24;;;;;;;22.88;20.73;;;17.20;99.90;;;;;;4594511;19;20425;-72
2023/09/28 01:34:59;;;;;;;22.58;20.48;;;17.20;99.90;;;;;;4594772;19;20430;-72
2023/09/28 01:36:35;;;;;;;23.25;20.85;;;17.20;99.90;;;;;;4594800;19;20014;-72
2023/09/28 01:38:29;;;;;;;22.83;20.63;;;17.20;99.90;;;;;;4594942;19;20509;-72
2023/09/28 01:40:04;;;;;;;22.70;20.45;;;17.20;99.90;;;;;;4593119;19;20029;-72
2023/09/28 01:41:38;;;;;;;22.63;20.42;;;17.20;99.90;;;;;;4594357;19;20002;-72
2023/09/28 01:43:16;;;;;;;22.65;20.25;;;17.20;99.90;;;;;;4594986;19;20007;-72
2023/09/28 01:44:52;;;;;;;23.27;20.98;;;17.20;99.90;;;;;;4594739;19;20062;-72
2023/09/28 01:46:26;;;;;;;23.35;20.95;;;17.10;99.90;;;;;;4594593;19;20015;-72
2023/09/28 01:48:08;;;;;;;23.38;20.88;;;17.10;99.90;;;;;;4594534;19;20017;-72
2023/09/28 01:49:42;;;;;;;22.95;20.73;;;17.10;99.90;;;;;;4594604;19;20319;-72
2023/09/28 01:51:17;;;;;;;22.08;19.88;;;17.10;99.90;;;;;;4594474;19;20023;-72
2023/09/28 01:52:53;;;;;;;22.80;20.65;;;17.10;99.90;;;;;;4594932;19;20010;-72
2023/09/28 01:54:26;;;;;;;22.38;20.20;;;17.10;99.90;;;;;;4594385;19;20003;-72
2023/09/28 01:56:02;;;;;;;21.73;19.60;;;17.10;99.90;;;;;;4594398;19;20013;-72
2023/09/28 01:57:38;;;;;;;23.30;20.90;;;17.00;99.90;;;;;;4594432;19;20036;-72
2023/09/28 01:59:12;;;;;;;22.60;20.40;;;17.00;99.90;;;;;;4593046;19;20073;-72
2023/09/28 02:00:46;;;;;;;22.35;20.25;;;17.00;99.90;;;;;;4593365;19;20062;-72
2023/09/28 02:02:22;;;;;;;22.05;19.77;;;17.00;99.90;;;;;;4594612;19;20328;-72
2023/09/28 02:03:57;;;;;;;22.95;20.67;;;17.00;99.90;;;;;;4594424;19;20035;-72
2023/09/28 02:05:34;;;;;;;22.98;20.88;;;17.00;99.90;;;;;;4594214;19;20045;-72
2023/09/28 02:07:13;;;;;;;22.30;20.23;;;17.00;99.90;;;;;;4592875;19;20098;-72
2023/09/28 02:08:47;;;;;;;22.15;19.95;;;17.00;99.90;;;;;;4592176;19;20006;-72
2023/09/28 02:10:21;;;;;;;22.73;20.45;;;16.90;99.90;;;;;;4593994;19;20015;-72
2023/09/28 02:11:56;;;;;;;22.40;20.13;;;16.90;99.90;;;;;;4594437;19;20007;-72
2023/09/28 02:13:31;;;;;;;22.58;20.38;;;16.90;99.90;;;;;;4592917;19;20004;-72
2023/09/28 02:15:09;;;;;;;24.85;22.35;;;16.90;99.90;;;;;;4594044;19;20025;-72
2023/09/28 02:16:44;;;;;;;22.70;20.52;;;16.90;99.90;;;;;;4593999;19;20007;-72
2023/09/28 02:18:18;;;;;;;22.92;20.52;;;16.90;99.90;;;;;;4593337;19;20032;-72
2023/09/28 02:19:53;;;;;;;23.40;21.10;;;16.90;99.90;;;;;;4593828;19;20010;-72
2023/09/28 02:21:29;;;;;;;23.38;20.98;;;16.90;99.90;;;;;;4593955;19;20297;-72
2023/09/28 02:23:04;;;;;;;23.02;20.73;;;16.90;99.90;;;;;;4593755;19;20509;-72
2023/09/28 02:24:38;;;;;;;22.50;20.30;;;16.80;99.90;;;;;;4593826;19;20006;-72
2023/09/28 02:26:13;;;;;;;22.65;20.45;;;16.80;99.90;;;;;;4593813;19;20006;-72
2023/09/28 02:27:48;;;;;;;23.42;21.13;;;16.80;99.90;;;;;;4592438;19;20002;-72
2023/09/28 02:29:22;;;;;;;22.55;20.35;;;16.80;99.90;;;;;;4591215;19;20002;-72
2023/09/28 02:31:07;;;;;;;22.92;20.73;;;16.70;99.90;;;;;;4593655;19;20006;-72
2023/09/28 02:32:42;;;;;;;21.65;19.38;;;16.80;99.90;;;;;;4593624;19;20003;-72
2023/09/28 02:34:16;;;;;;;22.38;20.15;;;16.80;99.90;;;;;;4593951;19;20069;-72
2023/09/28 02:35:53;;;;;;;21.60;19.30;;;16.80;99.90;;;;;;4593569;19;20007;-72
2023/09/28 02:37:27;;;;;;;21.42;19.33;;;16.80;99.90;;;;;;4593818;19;20032;-72
2023/09/28 02:39:01;;;;;;;23.20;20.90;;;16.80;99.90;;;;;;4592668;19;20423;-72
2023/09/28 02:40:38;;;;;;;24.45;22.05;;;16.80;99.90;;;;;;4592868;19;20023;-72
2023/09/28 02:42:13;;;;;;;22.80;20.40;;;16.80;99.90;;;;;;4593378;19;20002;-72
2023/09/28 02:43:47;;;;;;;21.30;19.27;;;16.80;99.90;;;;;;4593403;19;20307;-71
2023/09/28 02:45:24;;;;;;;21.55;19.35;;;16.80;99.90;;;;;;4593410;19;20020;-72
2023/09/28 02:46:57;;;;;;;22.50;20.30;;;16.80;99.90;;;;;;4593577;19;20421;-72
2023/09/28 02:48:31;;;;;;;22.85;20.55;;;16.80;99.90;;;;;;4593101;19;20410;-72
2023/09/28 02:50:09;;;;;;;22.80;20.58;;;16.70;99.90;;;;;;4593188;19;20380;-72
2023/09/28 02:51:46;;;;;;;23.65;21.35;;;16.80;99.90;;;;;;4592198;19;20007;-72
2023/09/28 02:53:20;;;;;;;22.25;19.98;;;16.80;99.90;;;;;;4592828;19;20350;-72
2023/09/28 02:54:58;;;;;;;21.73;19.55;;;16.70;99.90;;;;;;4593157;19;20014;-72
2023/09/28 02:56:32;;;;;;;23.00;20.55;;;16.80;99.90;;;;;;4593373;19;20033;-72
2023/09/28 02:58:06;;;;;;;22.75;20.27;;;16.70;99.90;;;;;;4593059;19;19999;-72
2023/09/28 02:59:43;;;;;;;23.65;21.35;;;16.70;99.90;;;;;;4592031;19;20013;-72
2023/09/28 03:01:17;;;;;;;23.92;21.52;;;16.80;99.90;;;;;;4591532;19;20003;-72
2023/09/28 03:02:56;;;;;;;23.92;21.55;;;16.80;99.90;;;;;;4592997;19;20021;-72
2023/09/28 03:04:33;;;;;;;21.83;19.52;;;16.80;99.90;;;;;;4592990;19;20007;-72
2023/09/28 03:06:09;;;;;;;21.20;19.13;;;16.80;99.90;;;;;;4593171;19;19994;-72
2023/09/28 03:07:44;;;;;;;23.13;20.88;;;16.70;99.90;;;;;;4592890;19;19999;-72
2023/09/28 03:09:19;;;;;;;22.75;20.40;;;16.80;99.90;;;;;;4590647;19;20026;-72
2023/09/28 03:10:53;;;;;;;22.10;19.85;;;16.70;99.90;;;;;;4591432;19;20009;-72
2023/09/28 03:12:27;;;;;;;22.58;20.38;;;16.70;99.90;;;;;;4592424;19;20025;-72
2023/09/28 03:14:04;;;;;;;21.85;19.63;;;16.70;99.90;;;;;;4593224;19;20010;-72
2023/09/28 03:15:41;;;;;;;23.02;20.73;;;16.70;99.90;;;;;;4592719;19;20033;-72
2023/09/28 03:17:16;;;;;;;24.02;21.63;;;16.80;99.90;;;;;;4591392;19;20445;-72
2023/09/28 03:18:52;;;;;;;22.67;20.50;;;16.70;99.90;;;;;;4591554;19;20015;-72
2023/09/28 03:20:27;;;;;;;21.50;19.50;;;16.70;99.90;;;;;;4592249;19;20029;-72
2023/09/28 03:22:01;;;;;;;21.75;19.65;;;16.70;99.90;;;;;;4592627;19;20002;-72
2023/09/28 03:23:38;;;;;;;23.02;20.73;;;16.70;99.90;;;;;;4591338;19;20003;-72
2023/09/28 03:25:18;;;;;;;22.77;20.58;;;16.70;99.90;;;;;;4590144;19;20010;-72
2023/09/28 03:26:53;;;;;;;22.23;20.00;;;16.70;99.90;;;;;;4591588;19;20324;-71
2023/09/28 03:28:33;;;;;;;21.95;19.88;;;16.70;99.90;;;;;;4591941;19;20938;-72
2023/09/28 03:30:10;;;;;;;23.38;21.02;;;16.70;99.90;;;;;;4591103;19;20014;-72
2023/09/28 03:31:46;;;;;;;22.70;20.40;;;16.70;99.90;;;;;;4592241;19;20007;-72
2023/09/28 03:33:21;;;;;;;22.63;20.33;;;16.70;99.90;;;;;;4592768;19;20465;-72
2023/09/28 03:34:57;;;;;;;22.08;19.73;;;16.70;99.90;;;;;;4592403;19;20002;-72
2023/09/28 03:36:33;;;;;;;21.73;19.52;;;16.70;99.90;;;;;;4592598;19;20425;-72
2023/09/28 03:38:11;;;;;;;22.65;20.45;;;16.70;99.90;;;;;;4592293;19;20028;-72
2023/09/28 03:39:45;;;;;;;21.65;19.45;;;16.70;99.90;;;;;;4592273;19;20002;-72
2023/09/28 03:41:19;;;;;;;22.10;19.95;;;16.60;99.90;;;;;;4591473;19;20025;-71
2023/09/28 03:42:55;;;;;;;22.92;20.75;;;16.70;99.90;;;;;;4592267;19;20002;-72
2023/09/28 03:44:29;;;;;;;23.08;20.67;;;16.70;99.90;;;;;;4592292;19;20003;-72
2023/09/28 03:46:03;;;;;;;22.13;19.92;;;16.70;99.90;;;;;;4592194;19;20444;-72
2023/09/28 03:47:44;;;;;;;21.48;19.27;;;16.70;99.90;;;;;;4592266;19;20006;-72
2023/09/28 03:49:18;;;;;;;21.42;19.38;;;16.70;99.90;;;;;;4589754;19;20015;-72
2023/09/28 03:50:52;;;;;;;22.42;20.17;;;16.70;99.90;;;;;;4591818;19;20021;-70
2023/09/28 03:52:27;;;;;;;22.38;20.15;;;16.80;99.90;;;;;;4592080;19;20043;-72
2023/09/28 03:54:02;;;;;;;23.02;20.83;;;16.80;99.90;;;;;;4592121;19;20002;-72
2023/09/28 03:55:37;;;;;;;22.00;19.80;;;16.80;99.90;;;;;;4592018;19;20088;-72
2023/09/28 03:57:12;;;;;;;23.02;20.70;;;16.80;99.90;;;;;;4592133;19;20305;-72
2023/09/28 03:58:47;;;;;;;21.48;19.38;;;16.80;99.90;;;;;;4591410;19;20002;-71
2023/09/28 04:00:21;;;;;;;22.95;20.60;;;16.80;99.90;;;;;;4591600;19;20003;-71
2023/09/28 04:01:57;;;;;;;21.83;19.77;;;16.90;99.90;;;;;;4592239;19;20423;-74
2023/09/28 04:03:31;;;;;;;22.67;20.48;;;16.80;99.90;;;;;;4591983;19;20011;-72
2023/09/28 04:05:10;;;;;;;22.65;20.45;;;16.80;99.90;;;;;;4591934;19;20425;-72
2023/09/28 04:06:45;;;;;;;20.23;18.23;;;16.90;99.90;;;;;;4590698;19;20005;-72
2023/09/28 04:08:19;;;;;;;18.10;16.33;;;17.10;99.90;;;;;;4590399;19;20022;-72
2023/09/28 04:09:55;;;;;;;20.83;16.75;;;17.50;99.90;;;;;;4591796;19;20009;-72
2023/09/28 04:11:30;;;;;;;17.23;15.38;;;17.90;99.90;;;;;;4591874;19;20002;-71
2023/09/28 04:13:04;;;;;;;19.80;16.27;;;18.30;99.90;;;;;;4591806;19;20006;-72
2023/09/28 04:14:38;;;;;;;18.05;16.10;;;18.50;99.90;;;;;;4591648;19;20019;-73
2023/09/28 04:16:13;;;;;;;17.88;15.32;;;18.80;99.90;;;;;;4592339;19;20378;-71
2023/09/28 04:17:48;;;;;;;16.48;14.82;;;19.00;99.90;;;;;;4591654;19;20006;-72
2023/09/28 04:19:23;;;;;;;17.25;14.70;;;19.10;99.90;;;;;;4590254;19;20074;-72
2023/09/28 04:20:59;;;;;;;18.13;14.90;;;19.30;99.90;;;;;;4590980;19;20090;-71
2023/09/28 04:22:34;;;;;;;16.05;14.38;;;19.40;99.90;;;;;;4591607;19;20006;-72
2023/09/28 04:24:08;;;;;;;16.90;14.95;;;19.50;99.90;;;;;;4591435;19;20010;-71
2023/09/28 04:25:44;;;;;;;16.05;13.75;;;19.60;99.90;;;;;;4591610;19;20019;-71
2023/09/28 04:27:18;;;;;;;16.00;14.25;;;19.60;99.90;;;;;;4591749;19;20002;-71
2023/09/28 04:28:53;;;;;;;16.30;14.48;;;19.70;99.90;;;;;;4590809;19;20368;-71
2023/09/28 04:30:28;;;;;;;18.27;14.60;;;19.80;99.90;;;;;;4590421;19;20013;-71
2023/09/28 04:32:02;;;;;;;16.33;14.63;;;19.80;99.90;;;;;;4591028;19;20433;-71
2023/09/28 04:33:36;;;;;;;15.55;13.95;;;19.80;99.90;;;;;;4591368;19;19999;-71
2023/09/28 04:35:13;;;;;;;16.65;13.95;;;19.90;99.90;;;;;;4591401;19;20459;-71
2023/09/28 04:36:49;;;;;;;17.27;14.80;;;19.90;99.90;;;;;;4594299;19;20322;-72
2023/09/28 04:38:23;;;;;;;16.85;14.95;;;19.90;99.90;;;;;;4595666;19;20062;-71
2023/09/28 04:39:59;;;;;;;15.27;13.77;;;20.00;99.90;;;;;;4595985;19;20090;-71
2023/09/28 04:42:02;;;;;;;16.55;14.73;;;20.00;99.90;;;;;;4595708;19;20003;-72
2023/09/28 04:44:10;;;;;;;16.02;14.10;;;20.00;99.90;;;;;;4596047;19;20013;-71
2023/09/28 04:46:05;;;;;;;16.13;14.38;;;20.10;99.90;;;;;;4594794;19;20040;-72
2023/09/28 04:47:39;;;;;;;17.75;14.77;;;20.10;99.90;;;;;;4595770;19;20006;-72
2023/09/28 04:49:13;;;;;;;18.13;14.55;;;20.10;99.90;;;;;;4594407;19;20006;-72
2023/09/28 04:50:48;;;;;;;15.45;13.85;;;20.10;99.90;;;;;;4595958;19;20002;-71
2023/09/28 04:52:23;;;;;;;15.20;13.63;;;20.10;99.90;;;;;;4595923;19;19999;-71
2023/09/28 04:54:02;;;;;;;16.15;14.45;;;20.20;99.90;;;;;;4595877;19;20334;-72
2023/09/28 04:55:38;;;;;;;17.50;14.35;;;20.20;99.90;;;;;;4594346;19;20010;-72
2023/09/28 04:57:13;;;;;;;32.33;15.95;;;20.20;99.90;;;;;;4595219;19;20025;-72
2023/09/28 04:58:47;;;;;;;16.20;14.45;;;20.20;99.90;;;;;;4594695;19;20007;-71
2023/09/28 05:00:22;;;;;;;18.63;15.13;;;20.30;99.90;;;;;;4595089;19;20430;-72
2023/09/28 05:01:57;;;;;;;18.88;14.85;;;20.30;99.90;;;;;;4595506;19;20002;-72
2023/09/28 05:03:32;;;;;;;17.45;15.55;;;20.30;99.90;;;;;;4595442;19;20078;-72
2023/09/28 05:05:07;;;;;;;16.85;14.95;;;20.30;99.90;;;;;;4595398;19;20018;-72
2023/09/28 05:06:42;;;;;;;16.90;14.73;;;20.30;99.90;;;;;;4595373;19;20366;-72
2023/09/28 05:08:16;;;;;;;18.52;15.30;;;20.30;99.90;;;;;;4595077;19;20430;-72
2023/09/28 05:09:52;;;;;;;18.27;13.55;;;20.30;99.90;;;;;;4595362;19;20007;-72
2023/09/28 05:11:26;;;;;;;18.40;15.38;;;20.30;99.90;;;;;;4595266;19;20002;-72
2023/09/28 05:13:00;;;;;;;19.90;14.05;;;20.30;99.90;;;;;;4595251;19;20439;-72
2023/09/28 05:14:36;;;;;;;18.77;15.02;;;20.40;99.90;;;;;;4595612;19;20013;-72
2023/09/28 05:16:11;;;;;;;17.45;13.50;;;20.40;99.90;;;;;;4595187;19;20175;-72
2023/09/28 05:17:47;;;;;;;16.10;13.70;;;20.40;99.90;;;;;;4595166;19;19998;-71
2023/09/28 05:19:25;;;;;;;15.50;13.60;;;20.40;99.90;;;;;;4592008;19;20096;-72
2023/09/28 05:20:59;;;;;;;15.88;13.45;;;20.40;99.90;;;;;;4593802;19;20006;-72
2023/09/28 05:22:33;;;;;;;17.02;13.63;;;20.40;99.90;;;;;;4595082;19;20016;-71
2023/09/28 05:24:10;;;;;;;17.23;14.05;;;20.40;99.90;;;;;;4595132;19;20023;-72
2023/09/28 05:25:44;;;;;;;17.38;14.38;;;20.40;99.90;;;;;;4595183;19;20006;-72
2023/09/28 05:27:19;;;;;;;15.25;13.65;;;20.40;99.90;;;;;;4594994;19;20017;-72
2023/09/28 05:28:54;;;;;;;16.23;14.02;;;20.50;99.90;;;;;;4593998;19;20018;-74
2023/09/28 05:30:28;;;;;;;14.55;12.90;;;20.50;99.90;;;;;;4594866;19;20024;-72
2023/09/28 05:32:05;;;;;;;14.32;12.35;;;20.50;99.90;;;;;;4593456;19;20032;-72
2023/09/28 05:33:41;;;;;;;17.10;13.20;;;20.50;99.90;;;;;;4593544;19;19999;-72
2023/09/28 05:35:15;;;;;;;15.65;12.60;;;20.60;99.90;;;;;;4593615;19;20010;-72
2023/09/28 05:36:51;;;;;;;15.18;13.27;;;20.60;99.90;;;;;;4593696;19;20074;-72
2023/09/28 05:38:26;;;;;;;15.95;13.13;;;20.70;99.90;;;;;;4594661;19;20011;-72
2023/09/28 05:40:05;;;;;;;14.57;12.68;;;20.70;99.90;;;;;;4594971;19;19999;-72
2023/09/28 05:41:40;;;;;;;16.77;12.70;;;20.80;99.90;;;;;;4593306;19;20347;-72
2023/09/28 05:43:17;;;;;;;14.93;12.45;;;20.90;99.90;;;;;;4594625;19;20019;-72
2023/09/28 05:45:01;;;;;;;14.73;13.27;;;21.00;99.90;;;;;;4593199;19;20002;-71
2023/09/28 05:46:54;;;;;;;13.38;11.85;;;21.00;99.90;;;;;;4593344;19;20002;-72
2023/09/28 05:48:50;;;;;;;18.10;13.27;;;21.10;99.90;;;;;;4590601;19;20014;-72
2023/09/28 05:50:24;;;;;;;15.38;13.40;;;21.20;99.90;;;;;;4593204;19;20006;-72
2023/09/28 05:52:01;;;;;;;15.18;12.40;;;21.30;99.90;;;;;;4594030;19;20023;-72
2023/09/28 05:53:37;;;;;;;14.65;13.15;;;21.30;99.90;;;;;;4594483;19;20009;-72
2023/09/28 05:55:13;;;;;;;14.85;12.55;;;21.40;99.90;;;;;;4594355;19;20002;-71
2023/09/28 05:56:47;;;;;;;15.32;12.30;;;21.40;99.90;;;;;;4594430;19;20444;-72
2023/09/28 05:58:22;;;;;;;13.90;12.50;;;21.40;99.90;;;;;;4594445;19;20002;-73
2023/09/28 05:59:58;;;;;;;14.15;12.48;;;21.40;99.90;;;;;;4594273;19;19999;-71
2023/09/28 06:01:32;;;;;;;15.60;11.88;;;21.50;99.90;;;;;;4593102;19;20351;-72
2023/09/28 06:03:07;;;;;;;13.82;11.95;;;21.50;99.90;;;;;;4594255;19;20152;-72
2023/09/28 06:04:43;;;;;;;15.13;12.38;;;21.50;99.90;;;;;;4594094;19;20002;-71
2023/09/28 06:06:17;;;;;;;15.65;12.18;;;21.50;99.90;;;;;;4594241;19;20331;-72
2023/09/28 06:07:54;;;;;;;16.58;12.43;;;21.50;99.90;;;;;;4592797;19;20016;-72
2023/09/28 06:09:28;;;;;;;16.90;12.73;;;21.50;99.90;;;;;;4591497;19;20422;-72
2023/09/28 06:11:03;;;;;;;15.73;14.13;;;21.50;99.90;;;;;;4592713;19;20074;-72
2023/09/28 06:12:38;;;;;;;15.27;13.20;;;21.50;99.90;;;;;;4593834;19;20010;-72
2023/09/28 06:14:19;;;;;;;13.82;12.43;;;21.50;99.90;;;;;;4593924;19;20007;-72
2023/09/28 06:15:53;;;;;;;15.88;12.32;;;21.50;99.90;;;;;;4594100;19;20013;-72
2023/09/28 06:17:28;;;;;;;14.18;12.68;;;21.50;99.90;;;;;;4593999;19;20041;-71
2023/09/28 06:19:03;;;;;;;16.98;12.88;;;21.40;99.90;;;;;;4592663;19;20019;-72
2023/09/28 06:20:36;;;;;;;14.23;11.38;;;21.40;99.90;;;;;;4593333;19;20082;-72
2023/09/28 06:22:12;;;;;;;17.17;12.13;;;21.40;99.90;;;;;;4594218;19;20426;-72
2023/09/28 06:23:46;;;;;;;12.35;10.57;;;21.40;99.90;;;;;;4592475;19;20471;-72
2023/09/28 06:25:20;;;;;;;12.45;11.15;;;21.40;99.90;;;;;;4593351;19;20015;-72
2023/09/28 06:26:56;;;;;;;17.00;12.95;;;21.40;99.90;;;;;;4592460;19;20027;-72
2023/09/28 06:28:31;;;;;;;13.55;11.18;;;21.40;99.90;;;;;;4592256;19;20006;-72
2023/09/28 06:30:09;;;;;;;13.77;10.27;;;21.40;99.90;;;;;;4593260;19;20009;-71
2023/09/28 06:31:44;;;;;;;11.70;10.10;;;21.50;99.90;;;;;;4593741;19;20006;-71
2023/09/28 06:33:18;;;;;;;12.25;10.30;;;21.60;99.90;;;;;;4592267;19;20006;-71
2023/09/28 06:34:53;;;;;;;12.15;10.02;;;21.70;99.90;;;;;;4593161;19;20061;-71
2023/09/28 06:36:28;;;;;;;11.45;9.95;;;21.70;99.90;;;;;;4593629;19;20016;-71
2023/09/28 06:38:03;;;;;;;11.07;9.70;;;21.80;99.90;;;;;;4591995;19;20019;-71
2023/09/28 06:39:37;;;;;;;11.77;10.48;;;21.80;99.90;;;;;;4593003;19;20381;-71
2023/09/28 06:41:13;;;;;;;10.95;9.77;;;21.80;99.90;;;;;;4591182;19;20006;-72
2023/09/28 06:42:48;;;;;;;12.32;9.82;;;21.80;99.90;;;;;;4593068;19;20358;-71
2023/09/28 06:44:23;;;;;;;11.00;9.52;;;21.80;99.90;;;;;;4591987;19;20006;-72
2023/09/28 06:45:58;;;;;;;11.75;9.75;;;21.90;99.90;;;;;;4592316;19;20006;-71
2023/09/28 06:47:33;;;;;;;12.77;10.25;;;21.90;99.90;;;;;;4593039;19;19999;-72
2023/09/28 06:49:08;;;;;;;11.77;9.82;;;21.80;99.90;;;;;;4591038;19;20327;-72
2023/09/28 06:50:44;;;;;;;13.20;10.30;;;21.70;99.90;;;;;;4592873;19;20090;-72
2023/09/28 06:52:18;;;;;;;13.13;10.32;;;21.60;99.90;;;;;;4593261;19;19999;-72
2023/09/28 06:53:52;;;;;;;14.20;10.38;;;21.60;99.90;;;;;;4593213;19;20006;-72
2023/09/28 06:55:28;;;;;;;12.70;10.93;;;21.50;99.90;;;;;;4593146;19;20081;-72
2023/09/28 06:57:03;;;;;;;11.98;10.73;;;21.40;99.90;;;;;;4593249;19;20010;-71
2023/09/28 06:58:37;;;;;;;11.95;10.20;;;21.40;99.90;;;;;;4591299;19;20029;-72
2023/09/28 07:00:16;;;;;;;13.60;10.98;;;21.40;99.90;;;;;;4592086;19;20007;-71
2023/09/28 07:01:52;;;;;;;11.50;9.70;;;21.40;99.90;;;;;;4591671;19;20010;-72
2023/09/28 07:03:31;;;;;;;13.25;10.75;;;21.40;99.90;;;;;;4592659;19;20073;-72
2023/09/28 07:05:06;;;;;;;12.43;10.52;;;21.30;99.90;;;;;;4592514;19;20436;-72
2023/09/28 07:06:41;;;;;;;12.48;9.40;;;21.30;99.90;;;;;;4591158;19;20417;-71
2023/09/28 07:08:17;;;;;;;11.27;9.30;;;21.30;99.90;;;;;;4591922;19;20005;-71
2023/09/28 07:09:55;;;;;;;13.23;10.85;;;21.30;99.90;;;;;;4590749;19;20011;-71
2023/09/28 07:11:29;;;;;;;11.95;9.85;;;21.30;99.90;;;;;;4591874;19;20003;-72
2023/09/28 07:13:05;;;;;;;13.25;10.48;;;21.30;99.90;;;;;;4592168;19;20017;-72
2023/09/28 07:14:41;;;;;;;13.32;10.75;;;21.30;99.90;;;;;;4590694;19;20007;-72
2023/09/28 07:16:15;;;;;;;11.88;10.68;;;21.30;99.90;;;;;;4591438;19;20085;-72
2023/09/28 07:17:49;;;;;;;14.73;10.43;;;21.30;99.90;;;;;;4592737;19;20002;-72
2023/09/28 07:19:25;;;;;;;12.27;10.85;;;21.30;99.90;;;;;;4591717;19;20014;-72
2023/09/28 07:21:02;;;;;;;12.40;9.55;;;21.30;99.90;;;;;;4591357;19;20444;-72
2023/09/28 07:22:37;;;;;;;13.95;9.82;;;21.30;99.90;;;;;;4591922;19;20007;-72
2023/09/28 07:24:12;;;;;;;11.15;9.93;;;21.40;99.90;;;;;;4590597;19;20015;-72
2023/09/28 07:25:50;;;;;;;12.20;10.20;;;21.50;99.90;;;;;;4591478;19;20011;-73
2023/09/28 07:27:31;;;;;;;11.95;10.60;;;21.40;99.90;;;;;;4590448;19;20302;-73
2023/09/28 07:29:06;;;;;;;12.32;9.95;;;21.40;99.90;;;;;;4590762;19;20010;-73
2023/09/28 07:30:40;;;;;;;15.52;10.45;;;21.40;99.90;;;;;;4590316;19;20025;-73
2023/09/28 07:32:15;;;;;;;10.32;9.32;;;21.40;99.90;;;;;;4590237;19;19999;-73
2023/09/28 07:33:52;;;;;;;10.90;9.43;;;21.40;99.90;;;;;;4591427;19;20026;-73
2023/09/28 07:35:28;;;;;;;12.15;9.65;;;21.40;99.90;;;;;;4591663;19;20363;-73
2023/09/28 07:37:03;;;;;;;12.15;10.57;;;21.40;99.90;;;;;;4590362;19;20002;-73
2023/09/28 07:38:38;;;;;;;11.48;9.98;;;21.40;99.90;;;;;;4590735;19;20017;-73
2023/09/28 07:40:13;;;;;;;13.48;11.10;;;21.40;99.90;;;;;;4590182;19;19999;-73
2023/09/28 07:41:51;;;;;;;12.40;11.05;;;21.40;99.90;;;;;;4590120;19;20020;-73
2023/09/28 07:43:29;;;;;;;14.57;10.85;;;21.40;99.90;;;;;;4590490;19;20006;-73
2023/09/28 07:45:04;;;;;;;16.17;10.85;;;21.40;99.90;;;;;;4591127;19;20013;-73
2023/09/28 07:46:39;;;;;;;14.73;10.65;;;21.40;99.90;;;;;;4590092;19;20010;-73
2023/09/28 07:48:15;;;;;;;12.57;10.10;;;21.40;99.90;;;;;;4589959;19;20011;-73
2023/09/28 07:49:55;;;;;;;12.55;10.20;;;21.40;99.90;;;;;;4591136;19;20062;-73
2023/09/28 07:51:30;;;;;;;13.27;9.90;;;21.40;99.90;;;;;;4591441;19;20011;-73
2023/09/28 07:53:06;;;;;;;11.88;10.30;;;21.40;99.90;;;;;;4591444;19;20047;-73
2023/09/28 07:54:40;;;;;;;12.07;10.25;;;21.40;99.90;;;;;;4590267;19;20086;-73
2023/09/28 07:56:15;;;;;;;11.38;9.63;;;21.30;99.90;;;;;;4590768;19;20021;-73
2023/09/28 07:57:53;;;;;;;11.43;9.20;;;21.40;99.90;;;;;;4591366;19;20006;-73
2023/09/28 07:59:28;;;;;;;10.80;9.43;;;21.40;99.90;;;;;;4590230;19;20010;-73
2023/09/28 08:01:03;;;;;;;12.63;10.30;;;21.30;99.90;;;;;;4590484;19;20005;-72
2023/09/28 08:02:42;;;;;;;13.50;9.30;;;21.40;99.90;;;;;;4591244;19;20007;-73
2023/09/28 08:04:21;;;;;;;13.23;9.77;;;21.40;99.90;;;;;;4589832;19;20003;-72
2023/09/28 08:05:59;;;;;;;11.60;9.52;;;21.40;99.90;;;;;;4590042;19;20006;-73
2023/09/28 08:07:34;;;;;;;11.10;9.45;;;21.40;99.90;;;;;;4591121;19;20006;-73
2023/09/28 08:09:14;;;;;;;11.48;9.57;;;21.40;99.90;;;;;;4590300;19;20006;-73
2023/09/28 08:10:49;;;;;;;14.95;10.73;;;21.40;99.90;;;;;;4591717;19;20301;-73
2023/09/28 08:12:23;;;;;;;10.93;9.20;;;21.40;99.90;;;;;;4595769;19;20002;-73
2023/09/28 08:13:59;;;;;;;12.88;9.27;;;21.40;99.90;;;;;;4596084;19;20013;-73
2023/09/28 08:15:33;;;;;;;12.93;9.85;;;21.40;99.90;;;;;;4595815;19;20006;-73
2023/09/28 08:17:09;;;;;;;9.70;8.70;;;21.40;99.90;;;;;;4595926;19;19998;-73
2023/09/28 08:18:48;;;;;;;10.88;9.50;;;21.40;99.90;;;;;;4592963;19;20011;-73
2023/09/28 08:20:23;;;;;;;14.27;9.70;;;21.40;99.90;;;;;;4594921;19;20069;-73
2023/09/28 08:21:57;;;;;;;17.98;10.40;;;21.40;99.90;;;;;;4594192;19;19995;-73
2023/09/28 08:23:33;;;;;;;12.55;9.10;;;21.40;99.90;;;;;;4595613;19;20077;-73
2023/09/28 08:25:08;;;;;;;12.40;9.23;;;21.40;99.90;;;;;;4595401;19;20007;-73
2023/09/28 08:26:43;;;;;;;12.45;10.25;;;21.40;99.90;;;;;;4593732;19;19999;-73